createdAt,value
2018-09-02T00:02:25.933Z,9.6
2018-09-02T00:07:28.151Z,9.6
2018-09-02T00:12:30.517Z,9.6
2018-09-02T00:17:32.823Z,9.5
2018-09-02T00:22:35.055Z,9.5
2018-09-02T00:27:37.252Z,9.4
2018-09-02T00:32:39.570Z,9.4
2018-09-02T00:37:41.863Z,9.4
2018-09-02T00:42:44.118Z,9.4
2018-09-02T00:47:46.540Z,9.4
2018-09-02T00:52:48.751Z,9.4
2018-09-02T01:02:53.338Z,9.4
2018-09-02T01:07:55.802Z,9.4
2018-09-02T01:12:58.019Z,9.6
2018-09-02T01:18:00.238Z,9.7
2018-09-02T01:23:02.736Z,9.8
2018-09-02T01:28:04.770Z,9.9
2018-09-02T01:33:07.367Z,10.1
2018-09-02T01:38:09.504Z,10.2
2018-09-02T01:43:11.743Z,10.3
2018-09-02T01:48:14.015Z,10.2
2018-09-02T01:53:16.370Z,10.2
2018-09-02T01:58:18.626Z,10.2
2018-09-02T02:03:20.859Z,10.1
2018-09-02T02:08:23.170Z,10.2
2018-09-02T02:13:25.462Z,10.1
2018-09-02T02:18:27.844Z,10.1
2018-09-02T02:23:30.172Z,10
2018-09-02T02:28:32.345Z,10
2018-09-02T02:33:34.611Z,10
2018-09-02T02:38:36.971Z,10.1
2018-09-02T02:43:39.286Z,10
2018-09-02T02:48:41.837Z,10.1
2018-09-02T02:53:43.842Z,10.1
2018-09-02T02:58:46.197Z,10
2018-09-02T03:03:48.504Z,10
2018-09-02T03:08:50.789Z,10
2018-09-02T03:13:53.028Z,10.1
2018-09-02T03:18:55.295Z,10.1
2018-09-02T03:23:57.592Z,10.1
2018-09-02T03:29:00.065Z,10
2018-09-02T03:34:02.276Z,10
2018-09-02T03:39:04.452Z,10
2018-09-02T03:44:06.813Z,10
2018-09-02T03:49:09.146Z,10
2018-09-02T03:54:11.427Z,10
2018-09-02T03:59:13.689Z,10
2018-09-02T04:04:15.951Z,10.1
2018-09-02T04:09:18.157Z,10
2018-09-02T04:14:20.570Z,10
2018-09-02T04:19:22.822Z,10
2018-09-02T04:24:25.096Z,10
2018-09-02T04:29:27.520Z,9.9
2018-09-02T04:34:29.785Z,9.9
2018-09-02T04:39:31.965Z,9.8
2018-09-02T04:44:34.300Z,9.8
2018-09-02T04:49:36.779Z,9.8
2018-09-02T04:54:38.946Z,9.7
2018-09-02T04:59:41.256Z,9.8
2018-09-02T05:04:43.492Z,9.8
2018-09-02T05:09:45.822Z,9.9
2018-09-02T05:14:48.093Z,9.9
2018-09-02T05:19:50.437Z,10
2018-09-02T05:24:52.794Z,10
2018-09-02T05:29:54.969Z,10
2018-09-02T05:34:57.202Z,10.1
2018-09-02T05:39:59.542Z,10.2
2018-09-02T05:45:01.903Z,10.3
2018-09-02T05:50:04.166Z,10.3
2018-09-02T05:55:06.558Z,10.5
2018-09-02T06:00:08.827Z,10.6
2018-09-02T06:05:11.072Z,10.7
2018-09-02T06:10:13.406Z,10.8
2018-09-02T06:15:15.552Z,10.9
2018-09-02T06:20:17.813Z,11
2018-09-02T06:25:20.154Z,11.2
2018-09-02T06:30:22.510Z,11.3
2018-09-02T06:35:24.745Z,11.5
2018-09-02T06:40:27.372Z,11.7
2018-09-02T06:45:29.362Z,12
2018-09-02T06:50:31.614Z,12.2
2018-09-02T06:55:33.949Z,12.6
2018-09-02T07:00:36.293Z,13
2018-09-02T07:05:38.575Z,13.4
2018-09-02T07:10:40.767Z,13.8
2018-09-02T07:15:43.127Z,14
2018-09-02T07:20:45.476Z,14.4
2018-09-02T07:25:47.730Z,14.6
2018-09-02T07:30:49.933Z,14.8
2018-09-02T07:35:52.348Z,15.2
2018-09-02T07:40:54.645Z,15.7
2018-09-02T07:45:57.088Z,15.9
2018-09-02T07:50:59.239Z,16.1
2018-09-02T07:56:01.557Z,16.200001
2018-09-02T08:01:03.688Z,16.5
2018-09-02T08:06:06.113Z,16.799999
2018-09-02T08:12:10.031Z,16.799999
2018-09-02T08:16:10.660Z,17.299999
2018-09-02T08:21:12.887Z,17.5
2018-09-02T08:26:15.351Z,17.700001
2018-09-02T08:31:17.591Z,18
2018-09-02T08:36:19.853Z,18.200001
2018-09-02T08:41:22.075Z,18.700001
2018-09-02T08:46:24.347Z,18.9
2018-09-02T08:51:26.703Z,19.200001
2018-09-02T08:56:29.051Z,19.799999
2018-09-02T09:01:31.386Z,19.5
2018-09-02T09:06:33.608Z,19.4
2018-09-02T09:11:35.993Z,19.6
2018-09-02T09:16:38.365Z,20.1
2018-09-02T09:21:40.565Z,20.299999
2018-09-02T09:26:42.800Z,20.5
2018-09-02T09:31:45.180Z,20.9
2018-09-02T09:36:47.375Z,21.4
2018-09-02T09:41:49.734Z,21.700001
2018-09-02T09:46:51.943Z,22
2018-09-02T09:51:54.251Z,22.299999
2018-09-02T09:56:56.809Z,22.9
2018-09-02T10:01:58.857Z,22.4
2018-09-02T10:07:01.128Z,22.4
2018-09-02T10:12:03.480Z,22.1
2018-09-02T10:17:05.823Z,22.700001
2018-09-02T10:22:08.061Z,22.6
2018-09-02T10:27:10.312Z,23.700001
2018-09-02T10:32:12.566Z,23.700001
2018-09-02T10:37:15.080Z,23.799999
2018-09-02T10:42:17.234Z,24
2018-09-02T10:47:19.478Z,23.9
2018-09-02T10:52:21.775Z,23.700001
2018-09-02T10:57:24.280Z,23.799999
2018-09-02T11:02:26.364Z,24.1
2018-09-02T11:07:28.639Z,24.9
2018-09-02T11:12:31.050Z,24.700001
2018-09-02T11:17:33.167Z,25.6
2018-09-02T11:22:35.664Z,26.299999
2018-09-02T11:27:37.834Z,26
2018-09-02T11:32:40.071Z,25.700001
2018-09-02T11:37:42.482Z,24.799999
2018-09-02T11:42:44.774Z,24.799999
2018-09-02T11:47:47.139Z,24.700001
2018-09-02T11:52:49.306Z,24.9
2018-09-02T11:57:51.740Z,24.9
2018-09-02T12:02:53.862Z,25.6
2018-09-02T12:07:56.283Z,25.299999
2018-09-02T12:12:58.566Z,25.9
2018-09-02T12:18:00.772Z,26
2018-09-02T12:23:03.059Z,26.200001
2018-09-02T12:28:05.467Z,26.700001
2018-09-02T12:33:07.641Z,26.799999
2018-09-02T12:38:10.067Z,26.700001
2018-09-02T12:43:12.267Z,26.299999
2018-09-02T12:48:14.570Z,26.700001
2018-09-02T12:53:16.891Z,26.299999
2018-09-02T12:58:19.295Z,25.9
2018-09-02T13:03:21.551Z,26.299999
2018-09-02T13:08:23.736Z,26.299999
2018-09-02T13:13:26.088Z,26.4
2018-09-02T13:18:28.378Z,26.200001
2018-09-02T13:23:30.763Z,26.299999
2018-09-02T13:28:32.845Z,26.799999
2018-09-02T13:33:35.231Z,26.9
2018-09-02T13:38:37.584Z,27.1
2018-09-02T13:43:39.798Z,27.9
2018-09-02T13:48:42.061Z,28.4
2018-09-02T13:53:44.349Z,27.799999
2018-09-02T13:58:46.634Z,27.1
2018-09-02T14:03:48.982Z,27.299999
2018-09-02T14:08:51.312Z,27.1
2018-09-02T14:13:53.580Z,27.200001
2018-09-02T14:18:55.849Z,27
2018-09-02T14:23:58.082Z,27.1
2018-09-02T14:29:00.456Z,26.9
2018-09-02T14:34:02.911Z,26.9
2018-09-02T14:39:05.142Z,26.6
2018-09-02T14:44:07.285Z,26.6
2018-09-02T14:49:09.585Z,26.700001
2018-09-02T14:54:11.986Z,26.6
2018-09-02T14:59:14.253Z,27
2018-09-02T15:04:16.498Z,26.700001
2018-09-02T15:09:18.808Z,26.6
2018-09-02T15:14:21.221Z,26.200001
2018-09-02T15:19:23.482Z,26.4
2018-09-02T15:24:25.643Z,26.4
2018-09-02T15:29:28.096Z,25.200001
2018-09-02T15:34:30.356Z,25.200001
2018-09-02T15:39:32.525Z,25.1
2018-09-02T15:44:34.807Z,25.200001
2018-09-02T15:49:37.275Z,25.299999
2018-09-02T15:54:39.501Z,25.1
2018-09-02T15:59:41.757Z,25.200001
2018-09-02T16:04:44.097Z,25.4
2018-09-02T16:09:46.275Z,25.299999
2018-09-02T16:14:48.774Z,25.200001
2018-09-02T16:19:50.991Z,25.1
2018-09-02T16:24:53.271Z,25
2018-09-02T16:29:55.704Z,25.1
2018-09-02T16:34:57.832Z,24.6
2018-09-02T16:40:00.241Z,23.9
2018-09-02T16:45:02.450Z,23.700001
2018-09-02T16:50:04.779Z,23.299999
2018-09-02T16:55:06.923Z,23.200001
2018-09-02T17:00:09.280Z,22.9
2018-09-02T17:05:11.586Z,22.6
2018-09-02T17:10:13.846Z,22.299999
2018-09-02T17:20:18.574Z,21.9
2018-09-02T17:25:21.048Z,21.6
2018-09-02T17:30:23.086Z,21.4
2018-09-02T17:35:25.308Z,21.200001
2018-09-02T17:40:27.648Z,21
2018-09-02T17:45:29.889Z,20.700001
2018-09-02T17:50:32.359Z,20.5
2018-09-02T17:55:34.505Z,20.4
2018-09-02T18:00:36.855Z,20.200001
2018-09-02T18:05:39.222Z,20
2018-09-02T18:10:41.436Z,19.6
2018-09-02T18:15:43.717Z,19.4
2018-09-02T18:20:45.959Z,19.200001
2018-09-02T18:25:48.394Z,19
2018-09-02T18:30:50.527Z,18.9
2018-09-02T18:35:52.889Z,18.6
2018-09-02T18:40:55.267Z,18.4
2018-09-02T18:45:57.442Z,18.299999
2018-09-02T18:50:59.732Z,18.1
2018-09-02T18:56:02.231Z,17.9
2018-09-02T19:01:04.480Z,17.9
2018-09-02T19:06:06.668Z,17.700001
2018-09-02T19:11:08.898Z,17.5
2018-09-02T19:16:11.311Z,17.5
2018-09-02T19:21:13.588Z,17.4
2018-09-02T19:26:15.875Z,17.299999
2018-09-02T19:31:18.122Z,17.299999
2018-09-02T19:36:20.574Z,17.1
2018-09-02T19:41:22.727Z,16.9
2018-09-02T19:46:25.020Z,16.9
2018-09-02T19:51:27.337Z,16.700001
2018-09-02T19:56:29.640Z,16.700001
2018-09-02T20:01:32.117Z,16.700001
2018-09-02T20:06:34.190Z,16.799999
2018-09-02T20:11:36.472Z,16.799999
2018-09-02T20:16:38.681Z,16.799999
2018-09-02T20:21:41.055Z,16.799999
2018-09-02T20:26:43.446Z,16.700001
2018-09-02T20:31:45.597Z,16.700001
2018-09-02T20:36:48.059Z,16.700001
2018-09-02T20:41:50.162Z,16.6
2018-09-02T20:46:52.610Z,16.5
2018-09-02T20:51:54.758Z,16.4
2018-09-02T20:56:57.181Z,16.4
2018-09-02T21:01:59.341Z,16.4
2018-09-02T21:07:01.706Z,16.4
2018-09-02T21:12:03.923Z,16.299999
2018-09-02T21:17:06.539Z,16.299999
2018-09-02T21:22:08.665Z,16.200001
2018-09-02T21:27:10.890Z,16.1
2018-09-02T21:32:13.158Z,16.1
2018-09-02T21:37:15.584Z,16
2018-09-02T21:42:17.809Z,15.9
2018-09-02T21:47:20.178Z,15.8
2018-09-02T21:52:22.415Z,15.8
2018-09-02T21:57:24.631Z,15.8
2018-09-02T22:02:26.889Z,15.7
2018-09-02T22:07:29.315Z,15.7
2018-09-02T22:12:31.661Z,15.6
2018-09-02T22:17:33.897Z,15.6
2018-09-02T22:22:36.187Z,15.5
2018-09-02T22:27:38.391Z,15.5
2018-09-02T22:32:40.624Z,15.4
2018-09-02T22:37:43.095Z,15.4
2018-09-02T22:42:45.319Z,15.4
2018-09-02T22:47:47.523Z,15.3
2018-09-02T22:52:49.900Z,15.2
2018-09-02T22:57:52.160Z,15.1
2018-09-02T23:02:54.470Z,15.1
2018-09-02T23:07:56.811Z,15.1
2018-09-02T23:12:59.152Z,15.1
2018-09-02T23:18:01.268Z,15
2018-09-02T23:23:03.549Z,15
2018-09-02T23:28:05.999Z,15
2018-09-02T23:33:08.281Z,15.1
2018-09-02T23:38:10.476Z,15.2
2018-09-02T23:43:12.835Z,15.2
2018-09-02T23:48:15.140Z,15.3
2018-09-02T23:53:17.439Z,15.3
2018-09-02T23:58:19.781Z,15.4
